sensor_id;sensor_type;location;lat;lon;timestamp;temperature;humidity
4431;DHT22;2228;48.140;11.488;2022-12-24T01:55:56;11.00;1.00
4431;DHT22;2228;48.140;11.488;2022-12-24T01:58:25;11.10;1.00
4431;DHT22;2228;48.140;11.488;2022-12-24T02:00:52;11.10;1.00
4431;DHT22;2228;48.140;11.488;2022-12-24T02:03:20;11.10;1.00
4431;DHT22;2228;48.140;11.488;2022-12-24T02:05:48;11.10;1.00
4431;DHT22;2228;48.140;11.488;2022-12-24T02:08:16;11.20;1.00
4431;DHT22;2228;48.140;11.488;2022-12-24T02:10:44;11.10;1.00
4431;DHT22;2228;48.140;11.488;2022-12-24T02:13:13;11.00;1.00
4431;DHT22;2228;48.140;11.488;2022-12-24T02:15:50;11.00;1.00
4431;DHT22;2228;48.140;11.488;2022-12-24T02:18:25;11.10;1.00
4431;DHT22;2228;48.140;11.488;2022-12-24T02:21:22;11.10;1.00
4431;DHT22;2228;48.140;11.488;2022-12-24T02:24:21;11.00;1.00
4431;DHT22;2228;48.140;11.488;2022-12-24T02:27:17;11.00;1.00
4431;DHT22;2228;48.140;11.488;2022-12-24T02:30:18;10.90;1.00
4431;DHT22;2228;48.140;11.488;2022-12-24T02:33:02;11.00;1.00
4431;DHT22;2228;48.140;11.488;2022-12-24T02:35:36;11.00;1.00
4431;DHT22;2228;48.140;11.488;2022-12-24T02:38:12;10.90;1.00
4431;DHT22;2228;48.140;11.488;2022-12-24T02:40:44;10.90;1.00
4431;DHT22;2228;48.140;11.488;2022-12-24T02:43:15;11.00;1.00
4431;DHT22;2228;48.140;11.488;2022-12-24T02:45:49;10.90;1.00
4431;DHT22;2228;48.140;11.488;2022-12-24T02:48:19;10.90;1.00
4431;DHT22;2228;48.140;11.488;2022-12-24T02:51:00;10.90;1.00
4431;DHT22;2228;48.140;11.488;2022-12-24T02:53:28;10.80;1.00
4431;DHT22;2228;48.140;11.488;2022-12-24T02:56:11;10.90;1.00
4431;DHT22;2228;48.140;11.488;2022-12-24T02:58:58;10.90;1.00
4431;DHT22;2228;48.140;11.488;2022-12-24T03:01:37;10.90;1.00
4431;DHT22;2228;48.140;11.488;2022-12-24T03:04:14;11.00;1.00
4431;DHT22;2228;48.140;11.488;2022-12-24T03:06:50;11.00;1.00
4431;DHT22;2228;48.140;11.488;2022-12-24T03:09:25;11.00;1.00
4431;DHT22;2228;48.140;11.488;2022-12-24T03:11:57;11.00;99.90
4431;DHT22;2228;48.140;11.488;2022-12-24T03:14:26;11.00;1.00
4431;DHT22;2228;48.140;11.488;2022-12-24T03:16:56;11.00;99.90
4431;DHT22;2228;48.140;11.488;2022-12-24T03:19:25;11.00;99.90
4431;DHT22;2228;48.140;11.488;2022-12-24T03:21:56;10.90;99.90
4431;DHT22;2228;48.140;11.488;2022-12-24T03:24:23;10.90;1.00
4431;DHT22;2228;48.140;11.488;2022-12-24T03:26:51;10.90;1.00
4431;DHT22;2228;48.140;11.488;2022-12-24T03:29:18;10.90;99.90
4431;DHT22;2228;48.140;11.488;2022-12-24T03:31:48;11.00;99.90
4431;DHT22;2228;48.140;11.488;2022-12-24T03:34:18;10.90;99.90
4431;DHT22;2228;48.140;11.488;2022-12-24T03:36:46;11.60;99.90
4431;DHT22;2228;48.140;11.488;2022-12-24T03:39:13;10.80;1.00
4431;DHT22;2228;48.140;11.488;2022-12-24T03:41:40;10.90;99.90
4431;DHT22;2228;48.140;11.488;2022-12-24T03:44:07;11.00;99.90
4431;DHT22;2228;48.140;11.488;2022-12-24T03:46:34;11.00;99.90
4431;DHT22;2228;48.140;11.488;2022-12-24T03:49:02;11.00;99.90
4431;DHT22;2228;48.140;11.488;2022-12-24T03:51:30;11.00;99.90
4431;DHT22;2228;48.140;11.488;2022-12-24T03:53:58;10.90;99.90
4431;DHT22;2228;48.140;11.488;2022-12-24T03:56:26;11.00;99.90
4431;DHT22;2228;48.140;11.488;2022-12-24T03:58:53;11.00;99.90
4431;DHT22;2228;48.140;11.488;2022-12-24T04:01:20;11.30;99.90
4431;DHT22;2228;48.140;11.488;2022-12-24T04:03:47;11.20;99.90
4431;DHT22;2228;48.140;11.488;2022-12-24T04:06:15;11.10;99.90
4431;DHT22;2228;48.140;11.488;2022-12-24T04:08:44;11.00;99.90
4431;DHT22;2228;48.140;11.488;2022-12-24T04:11:16;10.90;99.90
4431;DHT22;2228;48.140;11.488;2022-12-24T04:13:43;10.90;99.90
4431;DHT22;2228;48.140;11.488;2022-12-24T04:16:11;11.20;99.90
4431;DHT22;2228;48.140;11.488;2022-12-24T04:18:39;10.90;99.90
4431;DHT22;2228;48.140;11.488;2022-12-24T04:21:07;10.90;99.90
4431;DHT22;2228;48.140;11.488;2022-12-24T04:23:36;11.00;99.90
4431;DHT22;2228;48.140;11.488;2022-12-24T04:26:05;10.90;99.90
4431;DHT22;2228;48.140;11.488;2022-12-24T04:28:34;10.80;99.90
4431;DHT22;2228;48.140;11.488;2022-12-24T04:31:03;10.80;99.90
4431;DHT22;2228;48.140;11.488;2022-12-24T04:33:31;10.90;99.90
4431;DHT22;2228;48.140;11.488;2022-12-24T04:35:59;11.00;99.90
4431;DHT22;2228;48.140;11.488;2022-12-24T04:38:27;11.00;99.90
4431;DHT22;2228;48.140;11.488;2022-12-24T04:40:58;10.90;99.90
4431;DHT22;2228;48.140;11.488;2022-12-24T04:43:28;11.00;99.90
4431;DHT22;2228;48.140;11.488;2022-12-24T04:45:56;10.90;99.90
4431;DHT22;2228;48.140;11.488;2022-12-24T04:48:29;10.90;99.90
4431;DHT22;2228;48.140;11.488;2022-12-24T04:50:56;10.90;99.90
4431;DHT22;2228;48.140;11.488;2022-12-24T04:53:23;10.90;99.90
4431;DHT22;2228;48.140;11.488;2022-12-24T04:55:50;10.90;99.90
4431;DHT22;2228;48.140;11.488;2022-12-24T04:58:16;10.70;99.90
4431;DHT22;2228;48.140;11.488;2022-12-24T05:00:45;10.90;99.90
4431;DHT22;2228;48.140;11.488;2022-12-24T05:03:12;10.80;99.90
4431;DHT22;2228;48.140;11.488;2022-12-24T05:05:39;11.00;99.90
4431;DHT22;2228;48.140;11.488;2022-12-24T05:08:06;11.00;99.90
4431;DHT22;2228;48.140;11.488;2022-12-24T05:10:33;10.90;99.90
4431;DHT22;2228;48.140;11.488;2022-12-24T05:13:00;10.90;99.90
4431;DHT22;2228;48.140;11.488;2022-12-24T05:15:27;11.00;99.90
4431;DHT22;2228;48.140;11.488;2022-12-24T05:17:55;10.80;99.90
4431;DHT22;2228;48.140;11.488;2022-12-24T05:20:22;10.90;99.90
4431;DHT22;2228;48.140;11.488;2022-12-24T05:22:49;11.00;99.90
4431;DHT22;2228;48.140;11.488;2022-12-24T05:25:37;10.90;99.90
4431;DHT22;2228;48.140;11.488;2022-12-24T05:28:22;11.00;99.90
4431;DHT22;2228;48.140;11.488;2022-12-24T05:30:49;10.90;99.90
4431;DHT22;2228;48.140;11.488;2022-12-24T05:33:17;10.90;99.90
4431;DHT22;2228;48.140;11.488;2022-12-24T05:35:44;10.90;99.90
4431;DHT22;2228;48.140;11.488;2022-12-24T05:38:11;10.90;99.90
4431;DHT22;2228;48.140;11.488;2022-12-24T05:40:38;10.90;99.90
4431;DHT22;2228;48.140;11.488;2022-12-24T05:43:05;10.90;99.90
4431;DHT22;2228;48.140;11.488;2022-12-24T05:45:32;11.00;99.90
4431;DHT22;2228;48.140;11.488;2022-12-24T05:47:59;11.00;99.90
4431;DHT22;2228;48.140;11.488;2022-12-24T05:50:28;10.90;99.90
4431;DHT22;2228;48.140;11.488;2022-12-24T05:52:55;11.00;99.90
4431;DHT22;2228;48.140;11.488;2022-12-24T05:55:22;10.90;99.90
4431;DHT22;2228;48.140;11.488;2022-12-24T05:57:49;10.90;99.90
4431;DHT22;2228;48.140;11.488;2022-12-24T06:00:16;10.80;99.90
4431;DHT22;2228;48.140;11.488;2022-12-24T06:02:43;10.90;99.90
4431;DHT22;2228;48.140;11.488;2022-12-24T06:05:10;10.80;99.90
4431;DHT22;2228;48.140;11.488;2022-12-24T06:07:38;11.00;99.90
4431;DHT22;2228;48.140;11.488;2022-12-24T06:10:07;10.90;99.90
4431;DHT22;2228;48.140;11.488;2022-12-24T06:12:34;10.90;99.90
4431;DHT22;2228;48.140;11.488;2022-12-24T06:15:01;11.10;99.90
4431;DHT22;2228;48.140;11.488;2022-12-24T06:17:28;10.80;99.90
4431;DHT22;2228;48.140;11.488;2022-12-24T06:19:55;10.70;99.90
4431;DHT22;2228;48.140;11.488;2022-12-24T06:22:22;10.70;99.90
4431;DHT22;2228;48.140;11.488;2022-12-24T06:24:50;10.80;99.90
4431;DHT22;2228;48.140;11.488;2022-12-24T06:27:17;10.70;99.90
4431;DHT22;2228;48.140;11.488;2022-12-24T06:29:44;10.70;99.90
4431;DHT22;2228;48.140;11.488;2022-12-24T06:32:11;10.80;99.90
4431;DHT22;2228;48.140;11.488;2022-12-24T06:34:38;10.70;99.90
4431;DHT22;2228;48.140;11.488;2022-12-24T06:37:05;10.80;99.90
4431;DHT22;2228;48.140;11.488;2022-12-24T06:39:32;10.70;99.90
4431;DHT22;2228;48.140;11.488;2022-12-24T06:42:00;10.80;99.90
4431;DHT22;2228;48.140;11.488;2022-12-24T06:44:28;10.70;99.90
4431;DHT22;2228;48.140;11.488;2022-12-24T06:46:55;10.60;99.90
4431;DHT22;2228;48.140;11.488;2022-12-24T06:49:22;10.50;99.90
4431;DHT22;2228;48.140;11.488;2022-12-24T06:51:49;10.60;99.90
4431;DHT22;2228;48.140;11.488;2022-12-24T06:54:16;10.50;99.90
4431;DHT22;2228;48.140;11.488;2022-12-24T06:56:43;10.50;99.90
4431;DHT22;2228;48.140;11.488;2022-12-24T06:59:11;10.60;99.90
4431;DHT22;2228;48.140;11.488;2022-12-24T07:01:39;10.50;99.90
4431;DHT22;2228;48.140;11.488;2022-12-24T07:04:06;10.50;99.90
4431;DHT22;2228;48.140;11.488;2022-12-24T07:06:33;10.50;99.90
4431;DHT22;2228;48.140;11.488;2022-12-24T07:09:00;10.40;99.90
4431;DHT22;2228;48.140;11.488;2022-12-24T07:11:26;10.40;99.90
4431;DHT22;2228;48.140;11.488;2022-12-24T07:13:53;10.50;99.90
4431;DHT22;2228;48.140;11.488;2022-12-24T07:16:22;10.40;99.90
4431;DHT22;2228;48.140;11.488;2022-12-24T07:18:49;10.40;99.90
4431;DHT22;2228;48.140;11.488;2022-12-24T07:21:16;10.40;99.90
4431;DHT22;2228;48.140;11.488;2022-12-24T07:23:42;10.40;99.90
4431;DHT22;2228;48.140;11.488;2022-12-24T07:26:09;10.40;99.90
4431;DHT22;2228;48.140;11.488;2022-12-24T07:28:37;10.40;99.90
4431;DHT22;2228;48.140;11.488;2022-12-24T07:31:04;10.30;99.90
4431;DHT22;2228;48.140;11.488;2022-12-24T07:33:32;10.20;99.90
4431;DHT22;2228;48.140;11.488;2022-12-24T07:36:01;10.20;99.90
4431;DHT22;2228;48.140;11.488;2022-12-24T07:38:29;10.20;99.90
4431;DHT22;2228;48.140;11.488;2022-12-24T07:40:56;10.10;99.90
4431;DHT22;2228;48.140;11.488;2022-12-24T07:43:24;10.10;99.90
4431;DHT22;2228;48.140;11.488;2022-12-24T07:45:54;10.50;99.90
4431;DHT22;2228;48.140;11.488;2022-12-24T07:48:21;10.10;99.90
4431;DHT22;2228;48.140;11.488;2022-12-24T07:50:49;10.00;99.90
4431;DHT22;2228;48.140;11.488;2022-12-24T07:53:16;10.10;99.90
4431;DHT22;2228;48.140;11.488;2022-12-24T07:55:44;10.00;99.90
4431;DHT22;2228;48.140;11.488;2022-12-24T07:58:11;10.10;99.90
4431;DHT22;2228;48.140;11.488;2022-12-24T08:00:38;10.10;99.90
4431;DHT22;2228;48.140;11.488;2022-12-24T08:03:05;10.10;99.90
4431;DHT22;2228;48.140;11.488;2022-12-24T08:05:33;10.10;99.90
4431;DHT22;2228;48.140;11.488;2022-12-24T08:08:02;10.10;99.90
4431;DHT22;2228;48.140;11.488;2022-12-24T08:10:29;10.10;99.90
4431;DHT22;2228;48.140;11.488;2022-12-24T08:12:56;10.10;99.90
4431;DHT22;2228;48.140;11.488;2022-12-24T08:15:23;10.20;99.90
4431;DHT22;2228;48.140;11.488;2022-12-24T08:17:50;10.10;99.90
4431;DHT22;2228;48.140;11.488;2022-12-24T08:20:17;10.00;99.90
4431;DHT22;2228;48.140;11.488;2022-12-24T08:22:44;10.00;99.90
4431;DHT22;2228;48.140;11.488;2022-12-24T08:25:12;10.00;99.90
4431;DHT22;2228;48.140;11.488;2022-12-24T08:27:39;10.10;99.90
4431;DHT22;2228;48.140;11.488;2022-12-24T08:30:07;10.10;99.90
4431;DHT22;2228;48.140;11.488;2022-12-24T08:32:34;10.20;99.90
4431;DHT22;2228;48.140;11.488;2022-12-24T08:35:01;10.20;99.90
4431;DHT22;2228;48.140;11.488;2022-12-24T08:37:28;10.20;99.90
4431;DHT22;2228;48.140;11.488;2022-12-24T08:39:55;10.30;99.90
4431;DHT22;2228;48.140;11.488;2022-12-24T08:42:23;10.40;99.90
4431;DHT22;2228;48.140;11.488;2022-12-24T08:44:50;10.30;99.90
4431;DHT22;2228;48.140;11.488;2022-12-24T08:47:17;10.30;99.90
4431;DHT22;2228;48.140;11.488;2022-12-24T08:49:44;10.20;99.90
4431;DHT22;2228;48.140;11.488;2022-12-24T08:52:11;10.20;99.90
4431;DHT22;2228;48.140;11.488;2022-12-24T08:54:38;10.20;99.90
4431;DHT22;2228;48.140;11.488;2022-12-24T08:57:05;10.20;99.90
4431;DHT22;2228;48.140;11.488;2022-12-24T08:59:33;10.20;96.40
4431;DHT22;2228;48.140;11.488;2022-12-24T09:02:00;10.30;92.80
4431;DHT22;2228;48.140;11.488;2022-12-24T09:04:27;10.20;92.80
4431;DHT22;2228;48.140;11.488;2022-12-24T09:06:54;10.30;99.90
4431;DHT22;2228;48.140;11.488;2022-12-24T09:09:21;10.20;73.00
4431;DHT22;2228;48.140;11.488;2022-12-24T09:11:48;10.20;86.00
4431;DHT22;2228;48.140;11.488;2022-12-24T09:14:15;10.30;70.30
4431;DHT22;2228;48.140;11.488;2022-12-24T09:16:43;10.30;75.60
4431;DHT22;2228;48.140;11.488;2022-12-24T09:19:10;10.30;75.80
4431;DHT22;2228;48.140;11.488;2022-12-24T09:21:37;10.30;61.10
4431;DHT22;2228;48.140;11.488;2022-12-24T09:24:04;10.60;49.40
4431;DHT22;2228;48.140;11.488;2022-12-24T09:26:32;10.50;35.20
4431;DHT22;2228;48.140;11.488;2022-12-24T09:29:01;10.50;29.50
4431;DHT22;2228;48.140;11.488;2022-12-24T09:31:28;10.60;22.10
4431;DHT22;2228;48.140;11.488;2022-12-24T09:33:56;10.50;21.10
4431;DHT22;2228;48.140;11.488;2022-12-24T09:36:23;10.60;13.80
4431;DHT22;2228;48.140;11.488;2022-12-24T09:38:50;10.50;8.80
4431;DHT22;2228;48.140;11.488;2022-12-24T09:41:29;10.70;9.70
4431;DHT22;2228;48.140;11.488;2022-12-24T09:44:00;10.50;18.30
4431;DHT22;2228;48.140;11.488;2022-12-24T09:46:31;10.50;10.60
4431;DHT22;2228;48.140;11.488;2022-12-24T09:49:07;10.50;7.50
4431;DHT22;2228;48.140;11.488;2022-12-24T09:51:38;10.50;7.40
4431;DHT22;2228;48.140;11.488;2022-12-24T09:54:12;10.50;1.00
4431;DHT22;2228;48.140;11.488;2022-12-24T09:56:44;10.60;11.90
4431;DHT22;2228;48.140;11.488;2022-12-24T09:59:14;10.50;1.20
4431;DHT22;2228;48.140;11.488;2022-12-24T10:01:42;10.50;1.00
4431;DHT22;2228;48.140;11.488;2022-12-24T10:04:12;10.60;1.00
4431;DHT22;2228;48.140;11.488;2022-12-24T10:06:47;10.70;1.00
4431;DHT22;2228;48.140;11.488;2022-12-24T10:09:22;10.60;1.00
4431;DHT22;2228;48.140;11.488;2022-12-24T10:11:59;10.60;1.00
4431;DHT22;2228;48.140;11.488;2022-12-24T10:14:42;10.70;1.00
4431;DHT22;2228;48.140;11.488;2022-12-24T10:17:26;10.60;1.00
4431;DHT22;2228;48.140;11.488;2022-12-24T10:20:04;10.70;1.00
4431;DHT22;2228;48.140;11.488;2022-12-24T10:22:39;10.60;1.00
4431;DHT22;2228;48.140;11.488;2022-12-24T10:25:17;10.50;1.00
4431;DHT22;2228;48.140;11.488;2022-12-24T10:27:54;10.60;1.00
4431;DHT22;2228;48.140;11.488;2022-12-24T10:30:23;10.50;1.00
4431;DHT22;2228;48.140;11.488;2022-12-24T10:32:52;10.70;1.00
4431;DHT22;2228;48.140;11.488;2022-12-24T10:35:23;10.40;1.00
4431;DHT22;2228;48.140;11.488;2022-12-24T10:37:51;10.40;1.00
4431;DHT22;2228;48.140;11.488;2022-12-24T10:40:27;10.30;1.00
4431;DHT22;2228;48.140;11.488;2022-12-24T10:42:56;10.30;1.00
4431;DHT22;2228;48.140;11.488;2022-12-24T10:45:25;10.30;1.00
4431;DHT22;2228;48.140;11.488;2022-12-24T10:47:57;10.30;1.00
4431;DHT22;2228;48.140;11.488;2022-12-24T10:50:31;10.30;1.00
4431;DHT22;2228;48.140;11.488;2022-12-24T10:53:05;10.20;1.00
4431;DHT22;2228;48.140;11.488;2022-12-24T10:55:37;10.10;1.00
4431;DHT22;2228;48.140;11.488;2022-12-24T10:58:08;10.20;1.00
4431;DHT22;2228;48.140;11.488;2022-12-24T11:00:39;10.20;1.00
4431;DHT22;2228;48.140;11.488;2022-12-24T11:03:20;10.10;1.00
4431;DHT22;2228;48.140;11.488;2022-12-24T11:06:04;10.20;1.00
4431;DHT22;2228;48.140;11.488;2022-12-24T11:08:31;10.40;1.00
4431;DHT22;2228;48.140;11.488;2022-12-24T11:11:00;10.60;1.00
4431;DHT22;2228;48.140;11.488;2022-12-24T11:13:29;10.80;1.00
4431;DHT22;2228;48.140;11.488;2022-12-24T11:16:03;10.80;1.00
4431;DHT22;2228;48.140;11.488;2022-12-24T11:18:33;11.00;1.00
4431;DHT22;2228;48.140;11.488;2022-12-24T11:21:02;11.20;1.00
4431;DHT22;2228;48.140;11.488;2022-12-24T11:23:30;11.20;1.00
4431;DHT22;2228;48.140;11.488;2022-12-24T11:25:57;11.30;1.00
4431;DHT22;2228;48.140;11.488;2022-12-24T11:28:26;11.20;1.00
4431;DHT22;2228;48.140;11.488;2022-12-24T11:30:59;11.20;1.00
4431;DHT22;2228;48.140;11.488;2022-12-24T11:33:58;11.40;1.00
4431;DHT22;2228;48.140;11.488;2022-12-24T11:36:43;11.50;1.00
4431;DHT22;2228;48.140;11.488;2022-12-24T11:39:18;11.80;1.00
4431;DHT22;2228;48.140;11.488;2022-12-24T11:41:45;11.90;1.00
4431;DHT22;2228;48.140;11.488;2022-12-24T11:44:12;11.70;1.00
4431;DHT22;2228;48.140;11.488;2022-12-24T11:46:42;11.60;1.00
4431;DHT22;2228;48.140;11.488;2022-12-24T11:49:22;11.50;1.00
4431;DHT22;2228;48.140;11.488;2022-12-24T11:52:22;11.30;1.00
4431;DHT22;2228;48.140;11.488;2022-12-24T11:55:02;11.30;1.00
4431;DHT22;2228;48.140;11.488;2022-12-24T11:57:33;11.30;1.00
4431;DHT22;2228;48.140;11.488;2022-12-24T12:00:07;11.30;1.00
4431;DHT22;2228;48.140;11.488;2022-12-24T12:02:37;11.40;1.00
4431;DHT22;2228;48.140;11.488;2022-12-24T12:05:09;11.20;1.00
4431;DHT22;2228;48.140;11.488;2022-12-24T12:07:39;11.20;1.00
4431;DHT22;2228;48.140;11.488;2022-12-24T12:10:14;11.30;1.00
4431;DHT22;2228;48.140;11.488;2022-12-24T12:12:45;11.20;1.00
4431;DHT22;2228;48.140;11.488;2022-12-24T12:15:16;11.00;1.00
4431;DHT22;2228;48.140;11.488;2022-12-24T12:17:50;11.00;1.00
4431;DHT22;2228;48.140;11.488;2022-12-24T12:20:21;11.00;1.00
4431;DHT22;2228;48.140;11.488;2022-12-24T12:22:56;11.10;1.00
4431;DHT22;2228;48.140;11.488;2022-12-24T12:25:28;11.20;1.00
4431;DHT22;2228;48.140;11.488;2022-12-24T12:27:59;11.20;1.00
4431;DHT22;2228;48.140;11.488;2022-12-24T12:30:28;11.20;1.00
4431;DHT22;2228;48.140;11.488;2022-12-24T12:33:00;11.20;1.00
4431;DHT22;2228;48.140;11.488;2022-12-24T12:35:30;11.20;1.00
4431;DHT22;2228;48.140;11.488;2022-12-24T12:38:04;11.10;1.00
4431;DHT22;2228;48.140;11.488;2022-12-24T12:40:49;11.20;1.00
4431;DHT22;2228;48.140;11.488;2022-12-24T12:43:32;11.20;1.00
4431;DHT22;2228;48.140;11.488;2022-12-24T12:46:07;11.20;1.00
4431;DHT22;2228;48.140;11.488;2022-12-24T12:48:52;11.00;1.00
4431;DHT22;2228;48.140;11.488;2022-12-24T12:51:25;11.10;1.00
4431;DHT22;2228;48.140;11.488;2022-12-24T12:54:08;11.10;1.00
4431;DHT22;2228;48.140;11.488;2022-12-24T12:56:43;11.10;1.00
4431;DHT22;2228;48.140;11.488;2022-12-24T12:59:15;11.10;1.00
4431;DHT22;2228;48.140;11.488;2022-12-24T13:01:49;11.00;1.00
4431;DHT22;2228;48.140;11.488;2022-12-24T13:04:48;10.90;1.00
4431;DHT22;2228;48.140;11.488;2022-12-24T13:07:48;10.90;11.20
4431;DHT22;2228;48.140;11.488;2022-12-24T13:10:45;10.70;8.90
4431;DHT22;2228;48.140;11.488;2022-12-24T13:19:15;11.00;1.00
4431;DHT22;2228;48.140;11.488;2022-12-24T13:21:46;11.20;1.00
4431;DHT22;2228;48.140;11.488;2022-12-24T13:24:16;11.10;1.00
4431;DHT22;2228;48.140;11.488;2022-12-24T13:27:01;11.00;1.00
4431;DHT22;2228;48.140;11.488;2022-12-24T13:29:39;11.20;1.00
4431;DHT22;2228;48.140;11.488;2022-12-24T13:32:39;11.10;1.00
4431;DHT22;2228;48.140;11.488;2022-12-24T13:35:32;11.20;1.00
4431;DHT22;2228;48.140;11.488;2022-12-24T13:44:29;10.80;7.20
4431;DHT22;2228;48.140;11.488;2022-12-24T13:47:17;10.60;17.90
4431;DHT22;2228;48.140;11.488;2022-12-24T13:49:48;10.70;25.60
4431;DHT22;2228;48.140;11.488;2022-12-24T13:52:25;10.80;22.20
4431;DHT22;2228;48.140;11.488;2022-12-24T13:55:05;10.80;24.50
4431;DHT22;2228;48.140;11.488;2022-12-24T13:57:37;10.90;27.00
4431;DHT22;2228;48.140;11.488;2022-12-24T14:00:27;11.10;10.10
4431;DHT22;2228;48.140;11.488;2022-12-24T14:02:57;11.00;6.70
4431;DHT22;2228;48.140;11.488;2022-12-24T14:05:31;11.00;2.90
4431;DHT22;2228;48.140;11.488;2022-12-24T14:08:01;10.80;18.40
4431;DHT22;2228;48.140;11.488;2022-12-24T14:10:33;11.00;18.30
4431;DHT22;2228;48.140;11.488;2022-12-24T14:13:01;11.30;1.00
4431;DHT22;2228;48.140;11.488;2022-12-24T14:16:00;11.50;1.00
4431;DHT22;2228;48.140;11.488;2022-12-24T14:18:28;11.60;1.00
4431;DHT22;2228;48.140;11.488;2022-12-24T14:20:59;11.60;1.00
4431;DHT22;2228;48.140;11.488;2022-12-24T14:23:48;11.50;1.00
4431;DHT22;2228;48.140;11.488;2022-12-24T14:26:18;11.30;1.00
4431;DHT22;2228;48.140;11.488;2022-12-24T14:28:52;11.20;1.00
4431;DHT22;2228;48.140;11.488;2022-12-24T14:31:22;11.10;1.00
4431;DHT22;2228;48.140;11.488;2022-12-24T14:33:49;11.00;11.90
4431;DHT22;2228;48.140;11.488;2022-12-24T14:36:20;10.70;20.00
4431;DHT22;2228;48.140;11.488;2022-12-24T14:38:48;10.60;43.60
4431;DHT22;2228;48.140;11.488;2022-12-24T14:41:27;10.70;37.20
4431;DHT22;2228;48.140;11.488;2022-12-24T14:44:03;10.50;61.60
4431;DHT22;2228;48.140;11.488;2022-12-24T14:46:39;10.40;84.10
4431;DHT22;2228;48.140;11.488;2022-12-24T14:49:18;10.40;87.90
4431;DHT22;2228;48.140;11.488;2022-12-24T14:51:56;10.50;93.70
4431;DHT22;2228;48.140;11.488;2022-12-24T14:54:31;10.30;99.90
4431;DHT22;2228;48.140;11.488;2022-12-24T14:57:14;10.20;99.90
4431;DHT22;2228;48.140;11.488;2022-12-24T14:59:46;10.00;99.90
4431;DHT22;2228;48.140;11.488;2022-12-24T15:02:27;10.00;99.90
4431;DHT22;2228;48.140;11.488;2022-12-24T15:05:05;9.90;99.90
4431;DHT22;2228;48.140;11.488;2022-12-24T15:07:35;9.80;99.90
4431;DHT22;2228;48.140;11.488;2022-12-24T15:10:04;9.70;99.90
4431;DHT22;2228;48.140;11.488;2022-12-24T15:12:33;9.50;99.90
4431;DHT22;2228;48.140;11.488;2022-12-24T15:15:00;9.50;99.90
4431;DHT22;2228;48.140;11.488;2022-12-24T15:17:29;9.50;99.90
4431;DHT22;2228;48.140;11.488;2022-12-24T15:19:56;9.40;99.90
4431;DHT22;2228;48.140;11.488;2022-12-24T15:22:26;9.30;99.90
4431;DHT22;2228;48.140;11.488;2022-12-24T15:24:54;9.20;99.90
4431;DHT22;2228;48.140;11.488;2022-12-24T15:27:23;9.20;99.90
4431;DHT22;2228;48.140;11.488;2022-12-24T15:29:51;9.10;99.90
4431;DHT22;2228;48.140;11.488;2022-12-24T15:32:19;9.00;99.90
4431;DHT22;2228;48.140;11.488;2022-12-24T15:34:49;8.90;99.90
4431;DHT22;2228;48.140;11.488;2022-12-24T15:37:19;8.90;99.90
4431;DHT22;2228;48.140;11.488;2022-12-24T15:39:52;8.90;99.90
4431;DHT22;2228;48.140;11.488;2022-12-24T15:42:21;9.00;99.90
4431;DHT22;2228;48.140;11.488;2022-12-24T15:44:56;8.90;99.90
4431;DHT22;2228;48.140;11.488;2022-12-24T15:47:27;8.90;99.90
4431;DHT22;2228;48.140;11.488;2022-12-24T15:49:56;8.90;99.90
4431;DHT22;2228;48.140;11.488;2022-12-24T15:52:24;8.90;99.90
4431;DHT22;2228;48.140;11.488;2022-12-24T15:54:51;8.90;99.90
4431;DHT22;2228;48.140;11.488;2022-12-24T15:57:22;9.00;99.90
4431;DHT22;2228;48.140;11.488;2022-12-24T15:59:51;8.90;99.90
4431;DHT22;2228;48.140;11.488;2022-12-24T16:02:40;8.90;99.90
4431;DHT22;2228;48.140;11.488;2022-12-24T16:05:28;8.80;99.90
4431;DHT22;2228;48.140;11.488;2022-12-24T16:08:00;9.00;99.90
4431;DHT22;2228;48.140;11.488;2022-12-24T16:10:33;9.00;99.90
4431;DHT22;2228;48.140;11.488;2022-12-24T16:13:10;9.00;99.90
4431;DHT22;2228;48.140;11.488;2022-12-24T16:15:44;9.10;99.90
4431;DHT22;2228;48.140;11.488;2022-12-24T16:18:15;9.00;99.90
4431;DHT22;2228;48.140;11.488;2022-12-24T16:20:48;8.90;99.90
4431;DHT22;2228;48.140;11.488;2022-12-24T16:23:17;8.90;99.90
4431;DHT22;2228;48.140;11.488;2022-12-24T16:25:44;8.80;99.90
4431;DHT22;2228;48.140;11.488;2022-12-24T16:28:12;8.80;99.90
4431;DHT22;2228;48.140;11.488;2022-12-24T16:30:39;9.30;99.90
4431;DHT22;2228;48.140;11.488;2022-12-24T16:33:13;8.80;99.90
4431;DHT22;2228;48.140;11.488;2022-12-24T16:35:40;8.70;99.90
4431;DHT22;2228;48.140;11.488;2022-12-24T16:38:09;8.80;99.90
4431;DHT22;2228;48.140;11.488;2022-12-24T16:40:38;8.80;99.90
4431;DHT22;2228;48.140;11.488;2022-12-24T16:43:05;8.80;99.90
4431;DHT22;2228;48.140;11.488;2022-12-24T16:45:49;9.00;99.90
4431;DHT22;2228;48.140;11.488;2022-12-24T16:48:20;9.90;99.90
4431;DHT22;2228;48.140;11.488;2022-12-24T16:50:48;9.00;99.90
4431;DHT22;2228;48.140;11.488;2022-12-24T16:53:19;9.00;99.90
4431;DHT22;2228;48.140;11.488;2022-12-24T16:55:46;9.00;99.90
4431;DHT22;2228;48.140;11.488;2022-12-24T16:58:16;9.10;99.90
4431;DHT22;2228;48.140;11.488;2022-12-24T17:00:44;9.10;99.90
4431;DHT22;2228;48.140;11.488;2022-12-24T17:03:11;9.10;99.90
4431;DHT22;2228;48.140;11.488;2022-12-24T17:05:39;9.00;99.90
4431;DHT22;2228;48.140;11.488;2022-12-24T17:08:07;9.00;99.90
4431;DHT22;2228;48.140;11.488;2022-12-24T17:10:36;8.90;99.90
4431;DHT22;2228;48.140;11.488;2022-12-24T17:13:04;9.00;99.90
4431;DHT22;2228;48.140;11.488;2022-12-24T17:15:31;9.00;99.90
4431;DHT22;2228;48.140;11.488;2022-12-24T17:17:58;8.90;99.90
4431;DHT22;2228;48.140;11.488;2022-12-24T17:20:24;8.70;99.90
4431;DHT22;2228;48.140;11.488;2022-12-24T17:22:51;12.60;99.90
4431;DHT22;2228;48.140;11.488;2022-12-24T17:25:18;8.90;99.90
4431;DHT22;2228;48.140;11.488;2022-12-24T17:27:47;8.90;99.90
4431;DHT22;2228;48.140;11.488;2022-12-24T17:30:14;9.00;99.90
4431;DHT22;2228;48.140;11.488;2022-12-24T17:32:41;8.90;99.90
4431;DHT22;2228;48.140;11.488;2022-12-24T17:35:09;8.60;99.90
4431;DHT22;2228;48.140;11.488;2022-12-24T17:37:36;8.90;99.90
4431;DHT22;2228;48.140;11.488;2022-12-24T17:40:04;7.30;99.90
4431;DHT22;2228;48.140;11.488;2022-12-24T17:42:31;9.00;99.90
4431;DHT22;2228;48.140;11.488;2022-12-24T17:44:59;9.00;99.90
4431;DHT22;2228;48.140;11.488;2022-12-24T17:47:27;7.50;99.90
4431;DHT22;2228;48.140;11.488;2022-12-24T17:49:54;9.10;99.90
4431;DHT22;2228;48.140;11.488;2022-12-24T17:52:21;9.10;99.90
4431;DHT22;2228;48.140;11.488;2022-12-24T17:54:48;10.10;99.90
4431;DHT22;2228;48.140;11.488;2022-12-24T17:57:15;9.20;99.90
4431;DHT22;2228;48.140;11.488;2022-12-24T17:59:42;9.20;99.90
4431;DHT22;2228;48.140;11.488;2022-12-24T18:02:11;9.20;99.90
4431;DHT22;2228;48.140;11.488;2022-12-24T18:04:38;9.30;99.90
4431;DHT22;2228;48.140;11.488;2022-12-24T18:07:05;9.40;99.90
4431;DHT22;2228;48.140;11.488;2022-12-24T18:09:32;9.40;99.90
4431;DHT22;2228;48.140;11.488;2022-12-24T18:11:59;12.50;99.90
4431;DHT22;2228;48.140;11.488;2022-12-24T18:14:27;9.40;99.90
4431;DHT22;2228;48.140;11.488;2022-12-24T18:16:54;9.30;99.90
4431;DHT22;2228;48.140;11.488;2022-12-24T18:19:22;9.40;99.90
4431;DHT22;2228;48.140;11.488;2022-12-24T18:21:49;9.50;99.90
4431;DHT22;2228;48.140;11.488;2022-12-24T18:24:17;9.60;99.90
4431;DHT22;2228;48.140;11.488;2022-12-24T18:26:44;9.40;99.90